Time;durP1;ratioP1;P1;durP2;ratioP2;P2;SDS_P1;SDS_P2;PMS_P1;PMS_P2;Temp;Humidity;BMP_temperature;BMP_pressure;BME280_temperature;BME280_humidity;BME280_pressure;Samples;Min_cycle;Max_cycle;Signal;HPM_P1;HPM_P2
2022/08/20 00:02:02;;;;;;;23.38;14.45;;;;;;;;;;5086095;28;20020;-66
2022/08/20 00:04:27;;;;;;;19.45;13.52;;;;;;;;;;5083412;28;20012;-66
2022/08/20 00:06:52;;;;;;;20.23;13.18;;;;;;;;;;5072558;28;20155;-66
2022/08/20 00:09:17;;;;;;;18.10;12.52;;;;;;;;;;5077753;28;20078;-66
2022/08/20 00:11:43;;;;;;;17.88;12.68;;;;;;;;;;5089938;28;20538;-66
2022/08/20 00:14:08;;;;;;;21.00;13.63;;;;;;;;;;5080816;28;20483;-66
2022/08/20 00:16:35;;;;;;;19.55;12.68;;;;;;;;;;5075111;28;20467;-66
2022/08/20 00:19:01;;;;;;;21.92;13.18;;;;;;;;;;5076288;28;20021;-66
2022/08/20 00:21:27;;;;;;;19.33;13.88;;;;;;;;;;5081983;28;20112;-66
2022/08/20 00:23:53;;;;;;;20.88;13.00;;;;;;;;;;5084387;28;20469;-66
2022/08/20 00:26:18;;;;;;;17.52;12.85;;;;;;;;;;5082250;28;20020;-66
2022/08/20 00:28:44;;;;;;;19.73;13.70;;;;;;;;;;5073899;28;20384;-66
2022/08/20 00:31:11;;;;;;;20.20;13.48;;;;;;;;;;5077073;28;20435;-66
2022/08/20 00:33:37;;;;;;;20.55;13.57;;;;;;;;;;5088787;28;20016;-66
2022/08/20 00:36:05;;;;;;;21.60;13.90;;;;;;;;;;5081198;28;20020;-66
2022/08/20 00:38:34;;;;;;;20.48;14.05;;;;;;;;;;5080955;28;20097;-66
2022/08/20 00:41:00;;;;;;;22.67;14.52;;;;;;;;;;5080922;28;20387;-66
2022/08/20 00:43:28;;;;;;;24.65;15.05;;;;;;;;;;5087903;28;20012;-66
2022/08/20 00:45:55;;;;;;;23.85;14.98;;;;;;;;;;5080387;28;20028;-66
2022/08/20 00:48:21;;;;;;;22.95;14.40;;;;;;;;;;5085076;28;20016;-66
2022/08/20 00:50:46;;;;;;;23.38;15.45;;;;;;;;;;5083186;28;20020;-66
2022/08/20 00:53:12;;;;;;;21.30;14.18;;;;;;;;;;5076989;28;20090;-66
2022/08/20 00:55:37;;;;;;;22.55;15.05;;;;;;;;;;5085515;28;20027;-65
2022/08/20 00:58:04;;;;;;;21.73;15.23;;;;;;;;;;5083818;28;20349;-66
2022/08/20 01:00:38;;;;;;;26.65;14.88;;;;;;;;;;5084223;28;20027;-66
2022/08/20 01:03:08;;;;;;;24.73;15.23;;;;;;;;;;5079474;28;20020;-66
2022/08/20 01:05:34;;;;;;;22.08;14.93;;;;;;;;;;5088237;28;20024;-66
2022/08/20 01:07:59;;;;;;;22.20;15.18;;;;;;;;;;5075790;28;20059;-66
2022/08/20 01:10:31;;;;;;;24.27;15.13;;;;;;;;;;5081011;28;20040;-66
2022/08/20 01:12:57;;;;;;;24.63;15.98;;;;;;;;;;5083888;28;20016;-66
2022/08/20 01:15:24;;;;;;;25.63;16.23;;;;;;;;;;5081895;28;20115;-66
2022/08/20 01:17:51;;;;;;;23.73;16.25;;;;;;;;;;5081497;28;20024;-66
2022/08/20 01:20:40;;;;;;;25.90;16.13;;;;;;;;;;5084100;28;20028;-66
2022/08/20 01:26:03;;;;;;;26.15;16.98;;;;;;;;;;5079561;28;20051;-66
2022/08/20 01:28:31;;;;;;;24.70;16.90;;;;;;;;;;5084130;28;20405;-66
2022/08/20 01:30:56;;;;;;;25.42;16.48;;;;;;;;;;5075864;28;20074;-66
2022/08/20 01:33:22;;;;;;;26.35;16.38;;;;;;;;;;5086144;28;20028;-65
2022/08/20 01:35:49;;;;;;;25.90;16.33;;;;;;;;;;5085970;28;20399;-66
2022/08/20 01:38:14;;;;;;;26.35;16.77;;;;;;;;;;5087444;28;20031;-66
2022/08/20 01:40:58;;;;;;;25.02;15.52;;;;;;;;;;5091310;28;20024;-66
2022/08/20 01:43:23;;;;;;;26.15;16.05;;;;;;;;;;5075682;28;20035;-66
2022/08/20 01:45:50;;;;;;;21.55;15.18;;;;;;;;;;5075101;28;20056;-66
2022/08/20 01:48:16;;;;;;;22.70;15.07;;;;;;;;;;5093559;28;20038;-66
2022/08/20 01:50:44;;;;;;;23.27;15.20;;;;;;;;;;5081984;28;20020;-66
2022/08/20 01:53:17;;;;;;;25.20;16.02;;;;;;;;;;5084117;28;20036;-66
2022/08/20 01:55:43;;;;;;;25.42;16.55;;;;;;;;;;5081547;28;20027;-66
2022/08/20 01:58:08;;;;;;;23.95;15.88;;;;;;;;;;5079328;28;20033;-66
2022/08/20 02:00:34;;;;;;;25.35;16.70;;;;;;;;;;5081226;28;20031;-66
2022/08/20 02:03:01;;;;;;;25.83;16.10;;;;;;;;;;5076015;28;20024;-66
2022/08/20 02:05:27;;;;;;;25.75;16.48;;;;;;;;;;5078501;28;20030;-66
2022/08/20 02:07:52;;;;;;;26.27;16.88;;;;;;;;;;5082325;28;20096;-66
2022/08/20 02:10:17;;;;;;;26.00;17.60;;;;;;;;;;5077864;28;20033;-66
2022/08/20 02:12:43;;;;;;;24.50;16.73;;;;;;;;;;5085408;28;20035;-66
2022/08/20 02:15:09;;;;;;;25.40;16.52;;;;;;;;;;5075076;28;20023;-66
2022/08/20 02:17:35;;;;;;;27.30;17.35;;;;;;;;;;5072835;28;20423;-66
2022/08/20 02:20:04;;;;;;;27.67;18.17;;;;;;;;;;5080124;28;20020;-66
2022/08/20 02:22:33;;;;;;;27.65;18.48;;;;;;;;;;5086266;28;20532;-66
2022/08/20 02:24:58;;;;;;;28.00;17.63;;;;;;;;;;5077717;28;20012;-66
2022/08/20 02:27:23;;;;;;;26.55;17.67;;;;;;;;;;5076883;28;20027;-66
2022/08/20 02:29:51;;;;;;;28.17;18.05;;;;;;;;;;5078554;28;20229;-66
2022/08/20 02:32:17;;;;;;;25.08;17.13;;;;;;;;;;5072955;28;20138;-66
2022/08/20 02:34:42;;;;;;;28.35;17.98;;;;;;;;;;5076696;28;20115;-66
2022/08/20 02:37:07;;;;;;;28.05;17.80;;;;;;;;;;5079766;28;20371;-66
2022/08/20 02:39:32;;;;;;;29.02;17.95;;;;;;;;;;5088416;28;20560;-66
2022/08/20 02:41:58;;;;;;;30.40;18.90;;;;;;;;;;5088054;28;20031;-66
2022/08/20 02:44:23;;;;;;;29.35;17.50;;;;;;;;;;5098027;28;20031;-66
2022/08/20 02:46:48;;;;;;;29.48;18.35;;;;;;;;;;5085184;28;20032;-66
2022/08/20 02:49:16;;;;;;;31.27;19.00;;;;;;;;;;5074307;28;20027;-66
2022/08/20 02:51:41;;;;;;;37.80;21.33;;;;;;;;;;5074718;28;20637;-66
2022/08/20 02:54:06;;;;;;;37.83;21.45;;;;;;;;;;5084314;28;20036;-66
2022/08/20 02:56:31;;;;;;;42.45;23.20;;;;;;;;;;5093504;28;20039;-66
2022/08/20 02:58:57;;;;;;;46.05;24.08;;;;;;;;;;5091533;28;20027;-66
2022/08/20 03:01:22;;;;;;;53.05;25.23;;;;;;;;;;5075433;28;20050;-66
2022/08/20 03:03:47;;;;;;;51.35;24.92;;;;;;;;;;5082291;28;20039;-66
2022/08/20 03:06:13;;;;;;;56.00;26.77;;;;;;;;;;5089577;28;20517;-66
2022/08/20 03:08:39;;;;;;;57.17;26.10;;;;;;;;;;5089118;28;20456;-66
2022/08/20 03:11:04;;;;;;;73.60;29.40;;;;;;;;;;5077271;28;20032;-66
2022/08/20 03:13:29;;;;;;;66.95;28.77;;;;;;;;;;5071455;28;20032;-66
2022/08/20 03:15:56;;;;;;;77.35;30.00;;;;;;;;;;5082499;28;20507;-66
2022/08/20 03:18:23;;;;;;;86.72;32.00;;;;;;;;;;5074424;28;20495;-67
2022/08/20 03:20:49;;;;;;;76.18;30.30;;;;;;;;;;5090428;28;20020;-66
2022/08/20 03:23:14;;;;;;;91.97;32.42;;;;;;;;;;5070199;28;20034;-67
2022/08/20 03:25:40;;;;;;;84.30;30.95;;;;;;;;;;5087406;28;20015;-66
2022/08/20 03:28:06;;;;;;;80.13;30.73;;;;;;;;;;5090409;28;20027;-66
2022/08/20 03:30:32;;;;;;;85.90;31.98;;;;;;;;;;5084943;28;20078;-67
2022/08/20 03:32:57;;;;;;;108.20;35.20;;;;;;;;;;5072343;28;20107;-66
2022/08/20 03:35:24;;;;;;;110.97;34.33;;;;;;;;;;5072172;28;20491;-66
2022/08/20 03:37:49;;;;;;;84.43;30.55;;;;;;;;;;5071260;28;20078;-66
2022/08/20 03:40:17;;;;;;;99.95;34.80;;;;;;;;;;5073529;28;20046;-66
2022/08/20 03:42:42;;;;;;;85.28;31.60;;;;;;;;;;5084448;28;20559;-66
2022/08/20 03:45:08;;;;;;;90.35;32.63;;;;;;;;;;5089055;28;20012;-66
2022/08/20 03:47:34;;;;;;;96.03;32.47;;;;;;;;;;5071459;28;20032;-67
2022/08/20 03:50:00;;;;;;;99.70;32.97;;;;;;;;;;5076544;28;20514;-66
2022/08/20 03:52:28;;;;;;;91.90;32.53;;;;;;;;;;5072817;28;20056;-67
2022/08/20 03:54:53;;;;;;;96.25;32.78;;;;;;;;;;5078931;28;20032;-67
2022/08/20 03:57:18;;;;;;;82.45;30.27;;;;;;;;;;5079811;28;20025;-66
2022/08/20 03:59:43;;;;;;;84.63;30.58;;;;;;;;;;5081987;28;20040;-66
2022/08/20 04:02:10;;;;;;;68.13;27.02;;;;;;;;;;5088718;28;20154;-66
2022/08/20 04:04:35;;;;;;;74.30;28.83;;;;;;;;;;5089937;28;20012;-66
2022/08/20 04:07:07;;;;;;;93.68;30.55;;;;;;;;;;5074161;28;20032;-66
2022/08/20 04:09:32;;;;;;;80.15;28.88;;;;;;;;;;5075248;28;20027;-66
2022/08/20 04:11:59;;;;;;;84.55;29.13;;;;;;;;;;5071825;28;20035;-66
2022/08/20 04:14:24;;;;;;;97.80;30.17;;;;;;;;;;5072455;28;20028;-66
2022/08/20 04:16:49;;;;;;;86.20;29.50;;;;;;;;;;5076935;28;20024;-66
2022/08/20 04:19:14;;;;;;;85.95;28.35;;;;;;;;;;5071273;28;20027;-66
2022/08/20 04:21:40;;;;;;;78.22;29.17;;;;;;;;;;5092233;28;20016;-67
2022/08/20 04:24:05;;;;;;;90.75;28.75;;;;;;;;;;5088659;28;20427;-67
2022/08/20 04:26:30;;;;;;;98.63;31.02;;;;;;;;;;5092919;28;20472;-67
2022/08/20 04:28:56;;;;;;;85.93;30.35;;;;;;;;;;5094429;28;20032;-66
2022/08/20 04:31:23;;;;;;;92.53;29.88;;;;;;;;;;5078618;28;20020;-66
2022/08/20 04:33:49;;;;;;;83.45;28.75;;;;;;;;;;5077357;28;20468;-66
2022/08/20 04:36:14;;;;;;;94.03;30.33;;;;;;;;;;5094330;28;20077;-66
2022/08/20 04:38:39;;;;;;;93.40;31.50;;;;;;;;;;5090690;28;20032;-66
2022/08/20 04:41:04;;;;;;;102.45;31.85;;;;;;;;;;5087128;28;20028;-66
2022/08/20 04:43:32;;;;;;;108.35;32.67;;;;;;;;;;5079165;28;20030;-66
2022/08/20 04:45:58;;;;;;;88.15;30.48;;;;;;;;;;5081602;28;20026;-67
2022/08/20 04:48:24;;;;;;;89.07;30.20;;;;;;;;;;5091204;28;20071;-67
2022/08/20 04:50:51;;;;;;;110.60;32.80;;;;;;;;;;5077740;28;20414;-67
2022/08/20 04:53:17;;;;;;;79.07;29.70;;;;;;;;;;5074283;28;20089;-67
2022/08/20 04:55:44;;;;;;;96.20;29.58;;;;;;;;;;5087407;28;20089;-67
2022/08/20 04:58:27;;;;;;;81.80;29.25;;;;;;;;;;5093139;28;20028;-67
2022/08/20 05:00:54;;;;;;;96.85;31.17;;;;;;;;;;5079769;28;20025;-67
2022/08/20 05:03:19;;;;;;;91.43;29.77;;;;;;;;;;5074685;28;20013;-68
2022/08/20 05:05:45;;;;;;;82.82;29.08;;;;;;;;;;5082412;28;20145;-68
2022/08/20 05:08:11;;;;;;;88.25;29.77;;;;;;;;;;5093515;28;20073;-67
2022/08/20 05:10:37;;;;;;;95.60;31.30;;;;;;;;;;5089888;28;20109;-67
2022/08/20 05:13:02;;;;;;;77.18;28.52;;;;;;;;;;5094263;28;20024;-67
2022/08/20 05:15:27;;;;;;;113.38;32.58;;;;;;;;;;5086185;28;20115;-67
2022/08/20 05:17:54;;;;;;;105.18;31.10;;;;;;;;;;5091867;28;20119;-67
2022/08/20 05:20:19;;;;;;;126.68;34.03;;;;;;;;;;5089262;28;20089;-68
2022/08/20 05:22:45;;;;;;;118.57;33.15;;;;;;;;;;5091177;28;20472;-67
2022/08/20 05:25:10;;;;;;;151.00;36.90;;;;;;;;;;5090126;28;20016;-67
2022/08/20 05:27:35;;;;;;;118.13;33.67;;;;;;;;;;5093267;28;20051;-67
2022/08/20 05:30:10;;;;;;;130.85;34.92;;;;;;;;;;5071334;28;20016;-68
2022/08/20 05:32:36;;;;;;;136.38;35.72;;;;;;;;;;5091861;28;20107;-67
2022/08/20 05:35:02;;;;;;;147.48;36.15;;;;;;;;;;5087454;28;20112;-67
2022/08/20 05:37:28;;;;;;;168.07;37.75;;;;;;;;;;5093000;28;20387;-67
2022/08/20 05:39:54;;;;;;;135.38;36.50;;;;;;;;;;5090166;28;20027;-67
2022/08/20 05:42:19;;;;;;;121.47;36.22;;;;;;;;;;5096981;28;20042;-67
2022/08/20 05:44:45;;;;;;;149.35;38.50;;;;;;;;;;5101313;28;20019;-67
2022/08/20 05:47:11;;;;;;;113.15;34.97;;;;;;;;;;5089152;28;20388;-67
2022/08/20 05:49:37;;;;;;;136.80;38.67;;;;;;;;;;5090650;28;20028;-67
2022/08/20 05:52:02;;;;;;;121.85;36.65;;;;;;;;;;5093848;28;20028;-67
2022/08/20 05:54:28;;;;;;;125.38;37.30;;;;;;;;;;5089671;28;20036;-67
2022/08/20 05:56:53;;;;;;;121.82;36.22;;;;;;;;;;5087963;28;20158;-67
2022/08/20 05:59:19;;;;;;;102.57;35.67;;;;;;;;;;5079493;28;20066;-66
2022/08/20 06:01:45;;;;;;;131.90;36.97;;;;;;;;;;5088185;28;20020;-67
2022/08/20 06:04:26;;;;;;;150.75;37.83;;;;;;;;;;5090371;28;20035;-67
2022/08/20 06:07:04;;;;;;;129.38;36.70;;;;;;;;;;5084910;28;20529;-67
2022/08/20 06:09:29;;;;;;;95.60;34.22;;;;;;;;;;5080516;28;20024;-67
2022/08/20 06:11:54;;;;;;;98.00;34.70;;;;;;;;;;5090239;28;20020;-67
2022/08/20 06:14:20;;;;;;;89.43;33.22;;;;;;;;;;5072870;28;20115;-67
2022/08/20 06:16:46;;;;;;;81.45;31.60;;;;;;;;;;5083609;28;20024;-67
2022/08/20 06:19:12;;;;;;;68.40;29.23;;;;;;;;;;5079976;28;20035;-67
2022/08/20 06:21:38;;;;;;;79.70;30.02;;;;;;;;;;5090968;28;20043;-67
2022/08/20 06:24:03;;;;;;;64.70;27.52;;;;;;;;;;5089065;28;20431;-67
2022/08/20 06:26:29;;;;;;;52.92;25.60;;;;;;;;;;5076831;28;20099;-66
2022/08/20 06:28:54;;;;;;;45.85;23.67;;;;;;;;;;5072753;28;20028;-67
2022/08/20 06:31:20;;;;;;;40.72;21.05;;;;;;;;;;5080900;28;20032;-66
2022/08/20 06:33:46;;;;;;;32.03;18.42;;;;;;;;;;5090951;28;20035;-66
2022/08/20 06:36:11;;;;;;;30.98;17.10;;;;;;;;;;5096052;28;20035;-67
2022/08/20 06:38:36;;;;;;;29.60;17.17;;;;;;;;;;5091071;28;20475;-67
2022/08/20 06:41:01;;;;;;;25.17;16.35;;;;;;;;;;5085564;28;20028;-67
2022/08/20 06:43:27;;;;;;;26.25;15.15;;;;;;;;;;5088106;28;20035;-67
2022/08/20 06:45:55;;;;;;;22.27;14.85;;;;;;;;;;5080231;28;20092;-67
2022/08/20 06:48:20;;;;;;;24.45;14.70;;;;;;;;;;5082662;28;20167;-67
2022/08/20 06:50:46;;;;;;;24.80;13.43;;;;;;;;;;5087065;28;20425;-67
2022/08/20 06:53:12;;;;;;;28.23;13.02;;;;;;;;;;5074079;28;20028;-67
2022/08/20 06:55:39;;;;;;;26.05;13.10;;;;;;;;;;5082388;28;20035;-67
2022/08/20 06:58:06;;;;;;;25.90;13.10;;;;;;;;;;5090040;28;20028;-67
2022/08/20 07:00:33;;;;;;;22.77;12.65;;;;;;;;;;5083866;28;20383;-67
2022/08/20 07:03:01;;;;;;;21.95;11.90;;;;;;;;;;5077555;28;20598;-67
2022/08/20 07:05:27;;;;;;;22.17;11.13;;;;;;;;;;5076479;28;20369;-66
2022/08/20 07:07:53;;;;;;;23.00;10.50;;;;;;;;;;5071632;28;20031;-66
2022/08/20 07:10:19;;;;;;;19.35;9.88;;;;;;;;;;5081881;28;20465;-66
2022/08/20 07:12:45;;;;;;;17.55;9.30;;;;;;;;;;5081157;28;20127;-66
2022/08/20 07:15:11;;;;;;;20.55;9.50;;;;;;;;;;5090277;28;20024;-66
2022/08/20 07:17:36;;;;;;;17.75;8.55;;;;;;;;;;5090581;28;20054;-67
2022/08/20 07:20:03;;;;;;;15.73;8.38;;;;;;;;;;5083997;28;20060;-66
2022/08/20 07:22:29;;;;;;;12.50;6.53;;;;;;;;;;5089030;28;20116;-66
2022/08/20 07:24:54;;;;;;;11.77;6.15;;;;;;;;;;5092528;28;20544;-67
2022/08/20 07:27:21;;;;;;;13.98;6.22;;;;;;;;;;5108984;28;20018;-66
2022/08/20 07:32:33;;;;;;;14.75;5.80;;;;;;;;;;5089233;28;20031;-66
2022/08/20 07:34:59;;;;;;;11.30;5.55;;;;;;;;;;5090745;28;20031;-67
2022/08/20 07:37:24;;;;;;;10.80;4.80;;;;;;;;;;5078525;28;20033;-66
2022/08/20 07:39:49;;;;;;;11.88;5.03;;;;;;;;;;5083887;28;20102;-66
2022/08/20 07:42:15;;;;;;;12.07;5.35;;;;;;;;;;5084180;28;20016;-67
2022/08/20 07:44:40;;;;;;;12.63;5.60;;;;;;;;;;5083866;28;20032;-67
2022/08/20 07:47:05;;;;;;;11.07;4.28;;;;;;;;;;5088454;28;20023;-66
2022/08/20 07:49:30;;;;;;;12.20;4.32;;;;;;;;;;5087526;28;20094;-67
2022/08/20 07:51:56;;;;;;;11.27;3.88;;;;;;;;;;5085414;28;20039;-66
2022/08/20 07:54:21;;;;;;;8.10;3.60;;;;;;;;;;5084421;28;20036;-66
2022/08/20 07:56:47;;;;;;;12.82;3.88;;;;;;;;;;5085128;28;20036;-66
2022/08/20 07:59:12;;;;;;;10.68;3.40;;;;;;;;;;5085272;28;20022;-66
2022/08/20 08:01:37;;;;;;;7.60;3.28;;;;;;;;;;5085107;28;20475;-67
2022/08/20 08:04:03;;;;;;;13.77;3.10;;;;;;;;;;5078143;28;20101;-65
2022/08/20 08:06:29;;;;;;;7.93;2.72;;;;;;;;;;5083919;28;20103;-65
2022/08/20 08:08:55;;;;;;;9.38;3.10;;;;;;;;;;5088317;28;20077;-65
2022/08/20 08:11:21;;;;;;;8.32;2.70;;;;;;;;;;5075219;28;20117;-66
2022/08/20 08:13:46;;;;;;;9.10;2.85;;;;;;;;;;5071748;28;20113;-66
2022/08/20 08:16:12;;;;;;;5.95;2.38;;;;;;;;;;5081801;28;20074;-65
2022/08/20 08:18:55;;;;;;;10.20;2.67;;;;;;;;;;5091414;28;20417;-65
2022/08/20 08:21:22;;;;;;;8.05;2.20;;;;;;;;;;5082437;28;20035;-65
2022/08/20 08:23:48;;;;;;;7.95;2.38;;;;;;;;;;5072647;28;20119;-66
2022/08/20 08:26:14;;;;;;;10.30;2.60;;;;;;;;;;5077259;28;20028;-66
2022/08/20 08:28:42;;;;;;;12.30;2.67;;;;;;;;;;5085179;28;20908;-66
2022/08/20 08:31:07;;;;;;;7.63;2.65;;;;;;;;;;5085516;28;20024;-66
2022/08/20 08:33:33;;;;;;;9.73;2.45;;;;;;;;;;5085867;28;20128;-66
2022/08/20 08:36:03;;;;;;;8.60;2.55;;;;;;;;;;5088668;28;20468;-66
2022/08/20 08:38:30;;;;;;;15.07;3.25;;;;;;;;;;5082743;28;20458;-66
2022/08/20 08:40:56;;;;;;;9.20;3.00;;;;;;;;;;5081590;28;20020;-66
2022/08/20 08:43:23;;;;;;;10.95;3.05;;;;;;;;;;5082338;28;20041;-66
2022/08/20 08:46:09;;;;;;;7.53;2.70;;;;;;;;;;5072511;28;20468;-66
2022/08/20 08:48:38;;;;;;;8.20;2.50;;;;;;;;;;5073736;28;20120;-66
2022/08/20 08:51:11;;;;;;;6.82;2.20;;;;;;;;;;5079454;28;20031;-66
2022/08/20 08:53:42;;;;;;;10.45;2.25;;;;;;;;;;5076856;28;20081;-65
2022/08/20 08:56:08;;;;;;;10.80;2.20;;;;;;;;;;5073320;28;20028;-66
2022/08/20 08:58:34;;;;;;;7.60;2.25;;;;;;;;;;5077237;28;20061;-66
2022/08/20 09:01:12;;;;;;;7.38;1.90;;;;;;;;;;5085740;28;20375;-66
2022/08/20 09:03:42;;;;;;;7.80;2.10;;;;;;;;;;5090704;28;20468;-65
2022/08/20 09:06:10;;;;;;;9.75;2.17;;;;;;;;;;5089877;28;20016;-66
2022/08/20 09:08:43;;;;;;;7.18;2.10;;;;;;;;;;5093290;28;20028;-66
2022/08/20 09:11:09;;;;;;;7.75;2.10;;;;;;;;;;5094058;28;20055;-66
2022/08/20 09:13:34;;;;;;;12.13;2.42;;;;;;;;;;5094651;28;20048;-66
2022/08/20 09:15:59;;;;;;;8.38;2.22;;;;;;;;;;5094315;28;20032;-66
2022/08/20 09:18:25;;;;;;;6.95;2.00;;;;;;;;;;5094530;28;20024;-66
2022/08/20 09:20:50;;;;;;;8.32;2.20;;;;;;;;;;5093959;28;20101;-67
2022/08/20 09:23:15;;;;;;;8.57;2.42;;;;;;;;;;5079489;28;20021;-66
2022/08/20 09:25:40;;;;;;;8.40;1.92;;;;;;;;;;5081477;28;20015;-67
2022/08/20 09:28:05;;;;;;;8.50;1.92;;;;;;;;;;5094377;28;20535;-67
2022/08/20 09:30:31;;;;;;;10.10;2.60;;;;;;;;;;5092503;28;20430;-66
2022/08/20 09:32:58;;;;;;;8.77;2.10;;;;;;;;;;5094087;28;20012;-66
2022/08/20 09:35:23;;;;;;;10.05;2.08;;;;;;;;;;5093107;28;20043;-67
2022/08/20 09:37:48;;;;;;;7.82;1.73;;;;;;;;;;5093900;28;20496;-67
2022/08/20 09:40:14;;;;;;;8.18;2.03;;;;;;;;;;5087158;28;20024;-67
2022/08/20 09:42:39;;;;;;;9.27;2.00;;;;;;;;;;5093291;28;20421;-65
2022/08/20 09:45:04;;;;;;;7.13;1.88;;;;;;;;;;5107966;28;20069;-64
2022/08/20 09:47:30;;;;;;;11.45;2.08;;;;;;;;;;5093962;28;20016;-64
2022/08/20 09:49:55;;;;;;;10.10;2.10;;;;;;;;;;5093415;28;20427;-64
2022/08/20 09:52:22;;;;;;;9.43;2.22;;;;;;;;;;5094073;28;20515;-64
2022/08/20 09:54:48;;;;;;;7.82;2.08;;;;;;;;;;5090607;28;20032;-64
2022/08/20 09:57:14;;;;;;;11.38;2.58;;;;;;;;;;5091584;28;20806;-64
2022/08/20 09:59:39;;;;;;;6.40;1.83;;;;;;;;;;5092891;28;20028;-64
2022/08/20 10:02:04;;;;;;;8.67;2.17;;;;;;;;;;5093289;28;20054;-64
2022/08/20 10:04:29;;;;;;;8.35;2.38;;;;;;;;;;5093013;28;20250;-64
2022/08/20 10:06:55;;;;;;;8.75;2.08;;;;;;;;;;5093546;28;20012;-64
2022/08/20 10:09:20;;;;;;;6.05;1.95;;;;;;;;;;5088468;28;20660;-64
2022/08/20 10:11:45;;;;;;;10.40;2.60;;;;;;;;;;5083935;28;20056;-64
2022/08/20 10:14:10;;;;;;;7.53;2.00;;;;;;;;;;5083132;28;20023;-64
2022/08/20 10:16:36;;;;;;;8.77;1.77;;;;;;;;;;5081673;28;20457;-63
2022/08/20 10:19:02;;;;;;;9.15;2.05;;;;;;;;;;5073025;28;20289;-64
2022/08/20 10:21:28;;;;;;;8.02;1.77;;;;;;;;;;5089706;28;20020;-64
2022/08/20 10:23:54;;;;;;;7.88;1.90;;;;;;;;;;5093386;28;20016;-63
2022/08/20 10:26:19;;;;;;;8.70;1.80;;;;;;;;;;5093310;28;20020;-63
2022/08/20 10:28:44;;;;;;;8.90;1.80;;;;;;;;;;5092780;28;20289;-64
2022/08/20 10:31:10;;;;;;;7.90;1.63;;;;;;;;;;5078507;28;20424;-64
2022/08/20 10:33:36;;;;;;;10.52;2.42;;;;;;;;;;5072960;28;20026;-64
2022/08/20 10:36:08;;;;;;;10.38;2.50;;;;;;;;;;5085989;28;20404;-64
2022/08/20 10:38:34;;;;;;;9.82;1.85;;;;;;;;;;5076104;28;20031;-64
2022/08/20 10:40:59;;;;;;;9.57;1.98;;;;;;;;;;5092139;28;20515;-64
2022/08/20 10:43:24;;;;;;;9.43;2.00;;;;;;;;;;5090496;28;20020;-64
2022/08/20 10:45:50;;;;;;;9.13;2.10;;;;;;;;;;5088447;28;20021;-64
2022/08/20 10:48:15;;;;;;;8.27;1.92;;;;;;;;;;5067907;28;20028;-66
2022/08/20 10:50:40;;;;;;;9.35;1.88;;;;;;;;;;5089081;28;20028;-66
2022/08/20 10:53:06;;;;;;;7.85;1.92;;;;;;;;;;5083104;28;20036;-66
2022/08/20 10:55:31;;;;;;;8.13;1.90;;;;;;;;;;5084884;28;20103;-66
2022/08/20 10:57:56;;;;;;;7.97;2.05;;;;;;;;;;5089160;28;20032;-66
2022/08/20 11:00:21;;;;;;;8.20;1.77;;;;;;;;;;5077752;28;20032;-66
2022/08/20 11:02:47;;;;;;;8.90;1.90;;;;;;;;;;5075496;28;20055;-66
2022/08/20 11:05:12;;;;;;;8.60;1.63;;;;;;;;;;5080266;28;20609;-66
2022/08/20 11:07:39;;;;;;;12.73;1.80;;;;;;;;;;5087833;28;20531;-64
2022/08/20 11:10:05;;;;;;;8.65;1.65;;;;;;;;;;5074581;28;20678;-64
2022/08/20 11:12:30;;;;;;;8.48;1.60;;;;;;;;;;5068198;28;20706;-64
2022/08/20 11:14:55;;;;;;;7.53;1.60;;;;;;;;;;5077959;28;20035;-64
2022/08/20 11:17:22;;;;;;;9.25;1.60;;;;;;;;;;5090784;28;20031;-64
2022/08/20 11:19:47;;;;;;;7.10;1.40;;;;;;;;;;5081568;28;20035;-64
2022/08/20 11:22:12;;;;;;;9.90;1.50;;;;;;;;;;5073669;28;20016;-64
2022/08/20 11:24:37;;;;;;;6.65;1.40;;;;;;;;;;5076608;28;20032;-64
2022/08/20 11:27:06;;;;;;;6.00;1.20;;;;;;;;;;5079691;28;20016;-64
2022/08/20 11:29:31;;;;;;;7.65;1.40;;;;;;;;;;5070514;28;20060;-64
2022/08/20 11:31:57;;;;;;;7.80;1.80;;;;;;;;;;5071379;28;20510;-64
2022/08/20 11:34:22;;;;;;;7.93;1.30;;;;;;;;;;5069805;28;20042;-64
2022/08/20 11:36:47;;;;;;;4.93;1.40;;;;;;;;;;5077150;28;20069;-64
2022/08/20 11:39:13;;;;;;;7.03;1.70;;;;;;;;;;5078170;28;20031;-64
2022/08/20 11:41:38;;;;;;;5.93;1.42;;;;;;;;;;5073237;28;20108;-64
2022/08/20 11:44:03;;;;;;;8.88;1.70;;;;;;;;;;5076959;28;20624;-64
2022/08/20 11:46:31;;;;;;;6.32;1.55;;;;;;;;;;5075888;28;20033;-63
2022/08/20 11:48:56;;;;;;;6.72;2.90;;;;;;;;;;5084233;28;20494;-66
2022/08/20 11:51:22;;;;;;;6.78;1.73;;;;;;;;;;5085356;28;20032;-67
2022/08/20 11:53:47;;;;;;;5.38;1.40;;;;;;;;;;5085752;28;20047;-66
2022/08/20 11:56:15;;;;;;;5.95;1.40;;;;;;;;;;5082497;28;20032;-66
2022/08/20 11:58:40;;;;;;;8.13;1.30;;;;;;;;;;5087863;28;20379;-66
2022/08/20 12:01:05;;;;;;;5.63;1.40;;;;;;;;;;5077925;28;20104;-66
2022/08/20 12:03:31;;;;;;;6.38;1.23;;;;;;;;;;5096362;28;20107;-66
2022/08/20 12:05:56;;;;;;;8.60;1.50;;;;;;;;;;5076182;28;20115;-66
2022/08/20 12:08:22;;;;;;;7.00;1.58;;;;;;;;;;5068158;28;20385;-66
2022/08/20 12:10:47;;;;;;;9.30;1.25;;;;;;;;;;5075685;28;20526;-64
2022/08/20 12:13:12;;;;;;;5.55;1.20;;;;;;;;;;5071992;28;20020;-64
2022/08/20 12:15:37;;;;;;;8.10;1.55;;;;;;;;;;5080757;28;20030;-66
2022/08/20 12:18:06;;;;;;;7.05;1.60;;;;;;;;;;5071406;28;20239;-66
2022/08/20 12:20:32;;;;;;;4.68;1.08;;;;;;;;;;5075734;28;20012;-66
2022/08/20 12:22:57;;;;;;;6.28;1.52;;;;;;;;;;5073059;28;20123;-65
2022/08/20 12:25:23;;;;;;;5.60;1.20;;;;;;;;;;5075788;28;20028;-66
2022/08/20 12:27:48;;;;;;;6.72;1.30;;;;;;;;;;5071712;28;20518;-64
2022/08/20 12:30:14;;;;;;;10.88;1.38;;;;;;;;;;5071402;28;20032;-64
2022/08/20 12:32:41;;;;;;;6.88;1.38;;;;;;;;;;5071621;28;20024;-64
2022/08/20 12:35:06;;;;;;;6.43;1.35;;;;;;;;;;5077947;28;20016;-66
2022/08/20 12:37:32;;;;;;;8.05;1.52;;;;;;;;;;5086045;28;20373;-66
2022/08/20 12:39:58;;;;;;;6.22;1.45;;;;;;;;;;5078930;28;20665;-66
2022/08/20 12:42:24;;;;;;;8.50;1.23;;;;;;;;;;5072630;28;20031;-66
2022/08/20 12:44:49;;;;;;;5.90;1.30;;;;;;;;;;5081177;28;20457;-66
2022/08/20 12:47:17;;;;;;;6.53;1.30;;;;;;;;;;5086805;28;20085;-66
2022/08/20 12:49:47;;;;;;;6.50;1.17;;;;;;;;;;5076041;28;20050;-66
2022/08/20 12:52:13;;;;;;;9.38;1.40;;;;;;;;;;5078228;28;20384;-66
2022/08/20 12:54:38;;;;;;;9.18;1.77;;;;;;;;;;5079969;28;20020;-65
2022/08/20 12:57:04;;;;;;;7.18;1.48;;;;;;;;;;5094605;28;20153;-66
2022/08/20 12:59:29;;;;;;;8.18;1.40;;;;;;;;;;5081752;28;20025;-66
2022/08/20 13:01:55;;;;;;;5.68;1.20;;;;;;;;;;5094591;28;20012;-64
2022/08/20 13:04:20;;;;;;;7.22;1.48;;;;;;;;;;5078679;28;20107;-64
2022/08/20 13:06:45;;;;;;;6.63;1.42;;;;;;;;;;5093805;28;20024;-65
2022/08/20 13:09:11;;;;;;;7.57;1.40;;;;;;;;;;5094668;28;20035;-66
2022/08/20 13:11:36;;;;;;;7.85;1.23;;;;;;;;;;5094002;28;20024;-66
2022/08/20 13:14:02;;;;;;;6.32;1.13;;;;;;;;;;5094420;28;20056;-66
2022/08/20 13:16:27;;;;;;;5.90;1.33;;;;;;;;;;5093341;28;20077;-66
2022/08/20 13:18:52;;;;;;;6.25;1.25;;;;;;;;;;5094369;28;20032;-66
2022/08/20 13:21:17;;;;;;;6.97;1.40;;;;;;;;;;5078695;28;20104;-66
2022/08/20 13:23:43;;;;;;;5.95;1.20;;;;;;;;;;5074302;28;20023;-66
2022/08/20 13:26:08;;;;;;;4.30;1.10;;;;;;;;;;5088357;28;20142;-65
2022/08/20 13:28:33;;;;;;;6.50;1.33;;;;;;;;;;5093278;28;20077;-66
2022/08/20 13:31:00;;;;;;;5.85;1.50;;;;;;;;;;5094081;28;20032;-66
2022/08/20 13:33:26;;;;;;;6.40;1.10;;;;;;;;;;5081514;28;20162;-66
2022/08/20 13:35:51;;;;;;;6.57;1.10;;;;;;;;;;5086133;28;20024;-66
2022/08/20 13:38:16;;;;;;;5.70;1.20;;;;;;;;;;5079849;28;20406;-66
2022/08/20 13:40:42;;;;;;;4.85;1.20;;;;;;;;;;5084932;28;20371;-66
2022/08/20 13:43:07;;;;;;;6.40;1.60;;;;;;;;;;5079918;28;20012;-66
2022/08/20 13:45:32;;;;;;;5.90;1.60;;;;;;;;;;5077970;28;20032;-66
2022/08/20 13:47:58;;;;;;;5.80;1.20;;;;;;;;;;5076274;28;20020;-66
2022/08/20 13:50:24;;;;;;;6.47;1.35;;;;;;;;;;5085372;28;20047;-66
2022/08/20 13:52:50;;;;;;;7.03;1.40;;;;;;;;;;5093611;28;20028;-66
2022/08/20 13:55:18;;;;;;;6.25;1.20;;;;;;;;;;5092513;28;20089;-66
2022/08/20 13:57:43;;;;;;;6.70;1.20;;;;;;;;;;5093510;28;20017;-65
2022/08/20 14:00:11;;;;;;;8.77;1.13;;;;;;;;;;5093736;28;20039;-66
2022/08/20 14:02:37;;;;;;;5.22;1.20;;;;;;;;;;5093909;28;20468;-66
2022/08/20 14:05:03;;;;;;;5.40;1.10;;;;;;;;;;5092792;28;20034;-66
2022/08/20 14:07:28;;;;;;;6.65;1.10;;;;;;;;;;5084139;28;20484;-66
2022/08/20 14:09:55;;;;;;;6.82;1.25;;;;;;;;;;5087138;28;20111;-66
2022/08/20 14:12:23;;;;;;;4.35;1.15;;;;;;;;;;5092689;28;20016;-66
2022/08/20 14:14:49;;;;;;;8.32;1.50;;;;;;;;;;5088107;28;20628;-66
2022/08/20 14:17:19;;;;;;;6.15;1.25;;;;;;;;;;5093172;28;20084;-66
2022/08/20 14:19:46;;;;;;;6.72;1.40;;;;;;;;;;5092587;28;20044;-66
2022/08/20 14:22:11;;;;;;;5.85;1.27;;;;;;;;;;5087593;28;20031;-66
2022/08/20 14:24:37;;;;;;;5.88;1.17;;;;;;;;;;5082814;28;20024;-66
2022/08/20 14:27:06;;;;;;;6.25;1.02;;;;;;;;;;5084751;28;20019;-66
2022/08/20 14:29:36;;;;;;;6.70;1.55;;;;;;;;;;5089270;28;20031;-66